Time;durP1;ratioP1;P1;durP2;ratioP2;P2;SDS_P1;SDS_P2;PMS_P1;PMS_P2;Temp;Humidity;BMP_temperature;BMP_pressure;BME280_temperature;BME280_humidity;BME280_pressure;Samples;Min_cycle;Max_cycle;Signal;HPM_P1;HPM_P2
2023/12/23 00:02:53;;;;;;;0.00;0.00;;;;;;;3.57;59.37;97923.72;5323581;26;20127;-96
2023/12/23 00:04:59;;;;;;;0.00;0.00;;;;;;;3.81;59.38;97924.62;5324463;26;20805;-96
2023/12/23 00:07:34;;;;;;;0.00;0.00;;;;;;;3.63;59.38;97940.69;5315227;26;20063;-96
2023/12/23 00:10:12;;;;;;;0.00;0.00;;;;;;;3.77;59.39;97935.06;5318368;26;20751;-96
2023/12/23 00:15:19;;;;;;;0.00;0.00;;;;;;;3.73;59.38;97936.91;5337326;26;20064;-96
2023/12/23 00:18:04;;;;;;;0.00;0.00;;;;;;;3.83;59.38;97928.00;5372560;26;20028;-95
2023/12/23 00:20:33;;;;;;;0.00;0.00;;;;;;;3.96;59.39;97921.50;5321197;26;20055;-95
2023/12/23 00:22:59;;;;;;;0.00;0.00;;;;;;;4.01;59.40;97911.06;5335327;26;20064;-95
2023/12/23 00:25:25;;;;;;;0.00;0.00;;;;;;;3.86;59.39;97904.72;5334778;26;20108;-96
2023/12/23 00:27:51;;;;;;;0.00;0.00;;;;;;;4.05;59.41;97894.62;5312978;26;20344;-95
2023/12/23 00:30:16;;;;;;;0.00;0.00;;;;;;;4.06;59.41;97931.50;5330489;26;20059;-95
2023/12/23 00:32:44;;;;;;;0.00;0.00;;;;;;;4.24;59.41;97918.81;5312259;26;20083;-95
2023/12/23 00:35:10;;;;;;;0.00;0.00;;;;;;;4.06;59.40;97898.88;5312634;26;20435;-95
2023/12/23 00:37:41;;;;;;;0.00;0.00;;;;;;;4.17;59.41;97899.31;5331256;26;20081;-94
2023/12/23 00:40:10;;;;;;;0.00;0.00;;;;;;;4.23;59.41;97893.94;5356990;26;20053;-95
2023/12/23 00:42:47;;;;;;;0.00;0.00;;;;;;;4.28;59.42;97857.75;5334374;26;20799;-94
2023/12/23 00:45:15;;;;;;;0.00;0.00;;;;;;;4.24;59.41;97851.00;5338548;26;20074;-95
2023/12/23 00:47:43;;;;;;;0.00;0.00;;;;;;;4.11;59.40;97866.09;5321581;26;20025;-95
2023/12/23 00:50:13;;;;;;;0.00;0.00;;;;;;;4.16;59.41;97881.34;5338624;26;20785;-95
2023/12/23 00:53:03;;;;;;;0.00;0.00;;;;;;;4.16;59.41;97889.91;5343960;26;20066;-96
2023/12/23 00:55:43;;;;;;;0.00;0.00;;;;;;;4.25;59.41;97881.00;5363524;26;20100;-95
2023/12/23 00:58:19;;;;;;;0.00;0.00;;;;;;;4.37;59.42;97880.56;5344988;26;20024;-95
2023/12/23 01:06:10;;;;;;;0.00;0.00;;;;;;;4.23;59.41;97880.22;5364272;26;20059;-94
2023/12/23 01:08:37;;;;;;;0.00;0.00;;;;;;;4.40;59.42;97892.50;5321626;26;20054;-95
2023/12/23 01:11:04;;;;;;;0.00;0.00;;;;;;;4.51;59.43;97919.56;5340732;26;20028;-96
2023/12/23 01:13:34;;;;;;;0.00;0.00;;;;;;;4.31;59.42;97940.03;5320393;26;20060;-96
2023/12/23 01:16:00;;;;;;;;;;;;;;;4.35;59.42;97951.06;5361173;26;20074;-96
2023/12/23 01:18:52;;;;;;;0.00;0.00;;;;;;;4.47;59.42;97951.47;5338342;26;19939;-96
2023/12/23 01:21:23;;;;;;;0.00;0.00;;;;;;;4.45;59.42;97955.00;5352754;26;20033;-93
2023/12/23 02:25:18;;;;;;;0.00;0.00;;;;;;;3.99;59.40;98036.41;5258423;26;20116;-94
2023/12/23 02:34:22;;;;;;;0.00;0.00;;;;;;;3.80;59.38;98023.31;5274641;27;20069;-93
2023/12/23 02:36:50;;;;;;;0.00;0.00;;;;;;;3.72;59.38;98042.44;5224343;27;20057;-93
2023/12/23 02:39:42;;;;;;;0.00;0.00;;;;;;;3.94;59.39;98031.41;5223728;27;20812;-93
2023/12/23 02:42:56;;;;;;;0.00;0.00;;;;;;;3.92;59.40;98028.06;5260591;27;20073;-94
2023/12/23 02:49:19;;;;;;;;;;;;;;;;;;;;;
2023/12/23 02:51:47;;;;;;;0.00;0.00;;;;;;;3.93;59.40;98027.16;5345221;26;36318;-92
2023/12/23 02:54:55;;;;;;;0.00;0.00;;;;;;;3.99;59.40;98036.41;5292095;26;20068;-93
2023/12/23 02:57:38;;;;;;;0.00;0.00;;;;;;;3.80;59.38;98049.06;5256294;27;20111;-94
2023/12/23 03:00:55;;;;;;;0.00;0.00;;;;;;;3.73;59.39;98047.53;5238270;26;20880;-93
2023/12/23 03:14:14;;;;;;;0.00;0.00;;;;;;;3.38;59.36;98071.78;5214902;27;20053;-95
2023/12/23 03:29:48;;;;;;;0.00;0.00;;;;;;;3.88;59.39;98095.97;5230803;27;20064;-94
2023/12/23 03:43:27;;;;;;;0.00;0.00;;;;;;;3.87;59.39;98132.91;5328686;26;20114;-96
2023/12/23 03:55:06;;;;;;;0.00;0.00;;;;;;;3.99;59.40;98083.59;5234879;27;20094;-96
2023/12/23 03:58:02;;;;;;;0.00;0.00;;;;;;;3.93;59.39;98076.06;5266316;27;20048;-96
2023/12/23 04:03:06;;;;;;;0.00;0.00;;;;;;;3.89;59.39;98086.50;5127335;27;21057;-92
2023/12/23 04:05:31;;;;;;;0.00;0.00;;;;;;;3.89;59.39;98082.22;5211403;27;20401;-96
2023/12/23 04:08:22;;;;;;;;;;;;;;;;;;;;;
2023/12/23 04:11:57;;;;;;;0.00;0.00;;;;;;;3.86;59.39;98079.72;5244929;27;20021;-96
2023/12/23 04:15:04;;;;;;;0.00;0.00;;;;;;;3.75;59.38;98079.22;5272459;27;20026;-96
2023/12/23 04:17:56;;;;;;;0.00;0.00;;;;;;;3.95;59.39;98063.97;5304751;27;20042;-96
2023/12/23 04:20:43;;;;;;;0.00;0.00;;;;;;;3.98;59.40;98061.31;5293161;27;20570;-96
2023/12/23 04:23:09;;;;;;;0.00;0.00;;;;;;;4.11;59.40;98077.22;5285075;27;20099;-95
2023/12/23 04:25:35;;;;;;;0.00;0.00;;;;;;;4.03;59.40;98075.78;5284174;27;20099;-95
2023/12/23 04:28:01;;;;;;;0.00;0.00;;;;;;;4.09;59.40;98075.59;5264614;27;20069;-94
2023/12/23 04:30:27;;;;;;;0.00;0.00;;;;;;;4.13;59.41;98087.47;5272908;26;20083;-95
2023/12/23 04:32:53;;;;;;;0.00;0.00;;;;;;;4.14;59.41;98087.41;5329208;26;20135;-95
2023/12/23 04:35:18;;;;;;;0.00;0.00;;;;;;;4.03;59.40;98079.19;5291755;26;20049;-95
2023/12/23 04:37:44;;;;;;;0.00;0.00;;;;;;;4.09;59.40;98071.28;5294254;26;20101;-95
2023/12/23 04:40:11;;;;;;;0.00;0.00;;;;;;;3.96;59.39;98065.66;5310999;26;20059;-94
2023/12/23 04:42:43;;;;;;;0.00;0.00;;;;;;;4.07;59.40;98064.50;5296782;26;20396;-96
2023/12/23 04:45:21;;;;;;;0.00;0.00;;;;;;;4.07;59.40;98062.75;5337456;26;20072;-96
2023/12/23 04:47:47;;;;;;;0.00;0.00;;;;;;;4.06;59.41;98065.37;5337547;26;20036;-96
2023/12/23 04:50:13;;;;;;;0.00;0.00;;;;;;;4.04;59.40;98074.91;5337010;26;20036;-96
2023/12/23 04:52:38;;;;;;;0.00;0.00;;;;;;;3.99;59.40;98090.47;5315930;26;20056;-96
2023/12/23 04:55:05;;;;;;;0.00;0.00;;;;;;;3.80;59.38;98092.81;5332757;26;20138;-95
2023/12/23 04:57:38;;;;;;;0.00;0.00;;;;;;;3.70;59.38;98099.09;5318287;26;20029;-96
2023/12/23 05:00:17;;;;;;;0.00;0.00;;;;;;;3.94;59.39;98116.34;5352511;26;20945;-96
2023/12/23 05:02:43;;;;;;;0.00;0.00;;;;;;;3.89;59.39;98122.53;5359172;26;20048;-95
2023/12/23 05:05:09;;;;;;;0.00;0.00;;;;;;;4.04;59.40;98127.22;5340131;26;20057;-96
2023/12/23 05:08:32;;;;;;;0.00;0.00;;;;;;;3.92;59.40;98125.87;5341052;26;20069;-95
2023/12/23 05:10:59;;;;;;;0.00;0.00;;;;;;;3.95;59.40;98130.91;5340870;26;20034;-96
2023/12/23 05:13:38;;;;;;;0.00;0.00;;;;;;;3.74;59.38;98135.88;5341036;26;20021;-94
2023/12/23 05:16:21;;;;;;;0.00;0.00;;;;;;;3.76;59.38;98154.69;5346693;26;20075;-95
2023/12/23 05:27:54;;;;;;;0.00;0.00;;;;;;;3.68;59.38;98191.78;5339678;26;20630;-96
2023/12/23 05:30:39;;;;;;;0.00;0.00;;;;;;;3.58;59.37;98225.56;5326409;26;20052;-96
2023/12/23 05:33:18;;;;;;;0.00;0.00;;;;;;;3.46;59.38;98223.31;5291248;26;20056;-94
2023/12/23 05:35:46;;;;;;;0.00;0.00;;;;;;;3.66;59.38;98218.47;5291381;26;20056;-95
2023/12/23 05:38:15;;;;;;;0.00;0.00;;;;;;;3.61;59.38;98228.88;5290690;26;20053;-94
2023/12/23 05:40:44;;;;;;;0.00;0.00;;;;;;;3.43;59.36;98231.97;5289645;26;20079;-94
2023/12/23 05:43:19;;;;;;;0.00;0.00;;;;;;;3.53;59.38;98237.69;5289933;27;20075;-95
2023/12/23 05:45:45;;;;;;;0.00;0.00;;;;;;;3.32;59.36;98260.56;5304085;27;20123;-94
2023/12/23 05:48:18;;;;;;;0.00;0.00;;;;;;;3.29;59.36;98270.06;5323505;27;20084;-96
2023/12/23 05:51:16;;;;;;;0.00;0.00;;;;;;;3.03;59.35;98257.88;5285796;27;20056;-95
2023/12/23 05:53:41;;;;;;;0.00;0.00;;;;;;;3.12;59.35;98285.94;5304557;27;20056;-95
2023/12/23 05:56:07;;;;;;;0.00;0.00;;;;;;;3.19;59.35;98290.03;5284694;27;20056;-95
2023/12/23 05:58:33;;;;;;;0.00;0.00;;;;;;;3.23;59.35;98304.50;5291544;27;20078;-95
2023/12/23 06:01:01;;;;;;;0.00;0.00;;;;;;;3.09;59.34;98296.31;5287794;27;20057;-95
2023/12/23 06:04:19;;;;;;;;;;;;;;;;;;;;;
2023/12/23 06:06:50;;;;;;;0.00;0.00;;;;;;;3.05;59.35;98298.09;5295904;27;35790;-95
2023/12/23 06:10:01;;;;;;;0.00;0.00;;;;;;;3.07;59.34;98313.47;5286558;27;20291;-95
2023/12/23 06:13:32;;;;;;;0.00;0.00;;;;;;;3.09;59.34;98316.87;5284720;27;20064;-94
2023/12/23 06:16:01;;;;;;;0.00;0.00;;;;;;;3.02;59.35;98321.28;5306283;27;20777;-95
2023/12/23 06:18:32;;;;;;;0.00;0.00;;;;;;;3.10;59.35;98320.28;5290403;27;20074;-93
2023/12/23 06:22:04;;;;;;;0.00;0.00;;;;;;;3.13;59.35;98307.34;5289631;27;20678;-96
2023/12/23 06:24:12;;;;;;;0.00;0.00;;;;;;;3.07;59.34;98321.19;5309539;27;20076;-94
2023/12/23 06:26:38;;;;;;;0.00;0.00;;;;;;;3.14;59.35;98322.75;5288804;27;20064;-94
2023/12/23 06:29:03;;;;;;;0.00;0.00;;;;;;;3.08;59.34;98333.19;5288253;27;20330;-95
2023/12/23 06:31:29;;;;;;;0.00;0.00;;;;;;;3.17;59.34;98325.22;5287696;27;20063;-94
2023/12/23 06:33:59;;;;;;;0.00;0.00;;;;;;;3.27;59.36;98357.53;5304498;27;20096;-94
2023/12/23 06:36:25;;;;;;;0.00;0.00;;;;;;;3.28;59.36;98340.37;5287323;27;20139;-96
2023/12/23 06:38:50;;;;;;;0.00;0.00;;;;;;;3.41;59.37;98331.47;5278160;27;20091;-95
2023/12/23 06:41:18;;;;;;;0.00;0.00;;;;;;;3.49;59.37;98337.25;5286665;26;20363;-95
2023/12/23 06:43:47;;;;;;;0.00;0.00;;;;;;;3.56;59.37;98343.94;5288246;27;20053;-94
2023/12/23 06:46:12;;;;;;;0.00;0.00;;;;;;;3.40;59.37;98352.94;5287961;27;20075;-95
2023/12/23 06:48:40;;;;;;;0.00;0.00;;;;;;;3.44;59.36;98362.25;5288672;27;20131;-96
2023/12/23 06:51:11;;;;;;;0.00;0.00;;;;;;;3.36;59.36;98359.88;5289227;27;20059;-95
2023/12/23 06:53:56;;;;;;;0.00;0.00;;;;;;;3.35;59.36;98363.34;5287575;27;20071;-95
2023/12/23 06:56:25;;;;;;;0.00;0.00;;;;;;;3.47;59.38;98358.75;5294032;27;20025;-95
2023/12/23 06:59:02;;;;;;;0.00;0.00;;;;;;;3.46;59.36;98385.37;5289503;27;20108;-95
2023/12/23 07:05:06;;;;;;;0.00;0.00;;;;;;;3.72;59.39;98367.53;5256027;27;20057;-93
2023/12/23 07:13:50;;;;;;;0.00;0.00;;;;;;;3.85;59.39;98324.28;5303548;27;20413;-94
2023/12/23 07:16:40;;;;;;;0.00;0.00;;;;;;;3.80;59.38;98357.88;5287438;27;20110;-94
2023/12/23 07:27:54;;;;;;;0.20;0.20;;;;;;;3.59;59.37;98409.91;5317247;26;20088;-92
2023/12/23 07:30:44;;;;;;;;;;;;;;;;;;;;;
2023/12/23 07:33:58;;;;;;;;;;;;;;;;;;;;;
2023/12/23 07:36:55;;;;;;;;;;;;;;;;;;;;;
2023/12/23 07:47:03;;;;;;;;;;;;;;;;;;;;;
2023/12/23 07:50:03;;;;;;;0.00;0.00;;;;;;;3.44;59.36;98431.72;5046275;28;36759;-93
2023/12/23 07:56:51;;;;;;;0.00;0.00;;;;;;;3.30;59.35;98455.16;5067978;28;20763;-93
2023/12/23 08:18:32;;;;;;;;;;;;;;;;;;;;;
2023/12/23 08:21:21;;;;;;;2.45;0.80;;;;;;;3.91;59.40;98554.06;5061038;28;36824;-95
2023/12/23 08:23:52;;;;;;;0.00;0.00;;;;;;;4.11;59.40;98543.28;5073577;28;20064;-94
2023/12/23 08:26:29;;;;;;;0.00;0.00;;;;;;;4.14;59.41;98560.37;5106765;27;20130;-94
2023/12/23 08:29:07;;;;;;;0.00;0.00;;;;;;;4.31;59.41;98553.94;5181048;27;20045;-95
2023/12/23 08:31:53;;;;;;;0.00;0.00;;;;;;;4.42;59.43;98563.94;5240746;27;20058;-95
2023/12/23 08:34:27;;;;;;;0.00;0.00;;;;;;;4.59;59.43;98568.66;5258805;27;20856;-95
2023/12/23 08:36:56;;;;;;;0.00;0.00;;;;;;;4.66;59.44;98565.00;5268733;27;20053;-95
2023/12/23 08:45:56;;;;;;;0.00;0.00;;;;;;;4.68;59.44;98576.13;5263695;27;20060;-94
2023/12/23 08:48:30;;;;;;;0.00;0.00;;;;;;;4.80;59.45;98578.38;5288444;27;20025;-96
2023/12/23 08:51:16;;;;;;;0.03;0.03;;;;;;;4.81;59.45;98585.22;5270686;27;20067;-96
2023/12/23 08:53:42;;;;;;;0.00;0.00;;;;;;;5.03;59.46;98587.22;5279792;27;20065;-96
2023/12/23 08:56:07;;;;;;;0.00;0.00;;;;;;;5.04;59.46;98594.06;5268297;27;20070;-96
2023/12/23 08:58:49;;;;;;;0.73;0.70;;;;;;;4.99;59.45;98606.25;5305293;27;20060;-95
2023/12/23 09:01:15;;;;;;;0.00;0.00;;;;;;;4.78;59.44;98612.84;5269664;27;20059;-95
2023/12/23 09:03:40;;;;;;;0.00;0.00;;;;;;;4.57;59.43;98617.66;5286301;27;20064;-96
2023/12/23 09:06:06;;;;;;;0.10;0.10;;;;;;;4.48;59.42;98615.31;5286248;27;20074;-94
2023/12/23 09:08:58;;;;;;;0.00;0.00;;;;;;;4.67;59.44;98607.94;5271292;27;20110;-93
2023/12/23 09:11:25;;;;;;;0.00;0.00;;;;;;;4.61;59.43;98616.69;5306605;27;20052;-91
2023/12/23 09:13:50;;;;;;;0.00;0.00;;;;;;;4.60;59.43;98617.56;5302684;27;20434;-90
2023/12/23 09:16:16;;;;;;;1.25;0.60;;;;;;;4.60;59.43;98617.56;5266586;27;20106;-90
2023/12/23 09:18:44;;;;;;;0.00;0.00;;;;;;;4.62;59.43;98618.38;5266074;27;20056;-92
2023/12/23 09:21:09;;;;;;;0.00;0.00;;;;;;;4.66;59.44;98621.72;5265998;27;20072;-91
2023/12/23 09:23:35;;;;;;;0.00;0.00;;;;;;;4.79;59.45;98622.25;5283601;27;20123;-91
2023/12/23 09:26:00;;;;;;;0.00;0.00;;;;;;;4.78;59.44;98624.00;5283839;27;20119;-90
2023/12/23 09:28:26;;;;;;;0.00;0.00;;;;;;;4.84;59.44;98622.97;5265525;27;20127;-89
2023/12/23 09:30:51;;;;;;;0.00;0.00;;;;;;;4.78;59.44;98623.16;5265871;27;21580;-91
2023/12/23 09:33:16;;;;;;;0.00;0.00;;;;;;;4.78;59.44;98620.56;5283588;27;20163;-91
2023/12/23 09:35:49;;;;;;;0.00;0.00;;;;;;;4.86;59.44;98618.62;5265599;27;20101;-92
2023/12/23 09:38:15;;;;;;;0.00;0.00;;;;;;;4.99;59.45;98604.50;5265258;27;20858;-91
2023/12/23 09:40:40;;;;;;;0.00;0.00;;;;;;;5.08;59.46;98600.81;5300999;26;20111;-92
2023/12/23 09:46:23;;;;;;;0.00;0.00;;;;;;;5.32;59.47;98588.94;5297609;27;20029;-92
2023/12/23 09:48:49;;;;;;;0.00;0.00;;;;;;;5.28;59.47;98592.50;5282634;27;20160;-89
2023/12/23 09:51:15;;;;;;;0.00;0.00;;;;;;;5.08;59.45;98596.50;5267633;27;20124;-91
2023/12/23 09:53:41;;;;;;;1.40;1.35;;;;;;;5.22;59.46;98609.03;5282668;27;20417;-89
2023/12/23 09:56:07;;;;;;;0.00;0.00;;;;;;;5.11;59.46;98605.87;5264996;27;20068;-90
2023/12/23 09:58:34;;;;;;;0.00;0.00;;;;;;;5.01;59.45;98604.47;5264824;27;20052;-89
2023/12/23 10:00:59;;;;;;;0.00;0.00;;;;;;;5.20;59.46;98616.81;5283124;27;20048;-90
2023/12/23 10:03:24;;;;;;;0.00;0.00;;;;;;;5.24;59.46;98614.97;5264821;27;20079;-91
2023/12/23 10:05:51;;;;;;;0.00;0.00;;;;;;;5.14;59.46;98611.81;5282712;27;20768;-91
2023/12/23 10:08:17;;;;;;;0.00;0.00;;;;;;;5.13;59.46;98611.84;5282978;27;20078;-92
2023/12/23 10:10:50;;;;;;;0.00;0.00;;;;;;;5.07;59.46;98615.44;5282414;27;28550;-93
2023/12/23 10:13:16;;;;;;;0.00;0.00;;;;;;;5.21;59.46;98623.66;5302530;27;20578;-94
2023/12/23 10:15:41;;;;;;;0.00;0.00;;;;;;;5.22;59.46;98614.19;5266400;27;20079;-93
2023/12/23 10:18:10;;;;;;;0.52;0.47;;;;;;;5.13;59.46;98617.84;5265836;27;20060;-91
2023/12/23 10:20:38;;;;;;;1.23;0.85;;;;;;;5.01;59.45;98619.94;5284144;27;20140;-93
2023/12/23 10:23:04;;;;;;;0.00;0.00;;;;;;;4.83;59.44;98613.53;5284811;27;20069;-93
2023/12/23 10:25:30;;;;;;;1.27;0.68;;;;;;;4.71;59.43;98612.13;5265743;27;20359;-91
2023/12/23 10:27:58;;;;;;;0.00;0.00;;;;;;;4.86;59.44;98616.03;5283545;27;20071;-92
2023/12/23 10:33:16;;;;;;;0.05;0.05;;;;;;;5.11;59.46;98605.87;5267369;27;20029;-92
2023/12/23 10:35:44;;;;;;;1.30;1.00;;;;;;;5.27;59.47;98612.31;5283669;27;20085;-91
2023/12/23 10:38:24;;;;;;;0.30;0.28;;;;;;;5.20;59.47;98614.22;5284079;27;20060;-93
2023/12/23 10:40:55;;;;;;;0.00;0.00;;;;;;;5.21;59.46;98609.91;5287000;26;20064;-93
2023/12/23 10:43:24;;;;;;;0.00;0.00;;;;;;;5.04;59.45;98612.97;5267162;27;20413;-94
2023/12/23 10:45:55;;;;;;;0.65;0.50;;;;;;;5.08;59.46;98618.88;5304009;27;20127;-94
2023/12/23 10:48:21;;;;;;;0.00;0.00;;;;;;;5.05;59.45;98612.06;5266744;27;20057;-91
2023/12/23 10:50:47;;;;;;;0.13;0.13;;;;;;;5.21;59.47;98609.91;5266810;27;20060;-92
2023/12/23 10:53:15;;;;;;;0.00;0.00;;;;;;;4.96;59.45;98611.47;5267307;27;20122;-92
2023/12/23 10:55:40;;;;;;;0.00;0.00;;;;;;;5.00;59.45;98607.94;5267194;27;20064;-91
2023/12/23 10:58:09;;;;;;;0.00;0.00;;;;;;;4.56;59.43;98607.41;5284299;27;20455;-91
2023/12/23 11:00:36;;;;;;;0.00;0.00;;;;;;;4.48;59.42;98602.41;5286233;27;20072;-91
2023/12/23 11:03:01;;;;;;;0.00;0.00;;;;;;;4.46;59.43;98596.47;5284324;27;20098;-91
2023/12/23 11:05:26;;;;;;;0.00;0.00;;;;;;;4.41;59.41;98593.16;5266506;27;20084;-91
2023/12/23 11:07:52;;;;;;;0.00;0.00;;;;;;;4.51;59.43;98589.47;5266322;27;20107;-90
2023/12/23 11:10:17;;;;;;;0.00;0.00;;;;;;;4.54;59.43;98586.81;5284302;27;20083;-91
2023/12/23 11:12:43;;;;;;;0.00;0.00;;;;;;;4.47;59.42;98581.84;5284242;27;20405;-91
2023/12/23 11:15:08;;;;;;;0.00;0.00;;;;;;;4.36;59.42;98584.72;5284026;27;20394;-89
2023/12/23 11:17:35;;;;;;;0.00;0.00;;;;;;;4.28;59.42;98569.47;5265911;27;20076;-90
2023/12/23 11:20:02;;;;;;;0.00;0.00;;;;;;;4.34;59.41;98572.75;5284333;27;20413;-91
2023/12/23 11:22:38;;;;;;;0.10;0.10;;;;;;;4.14;59.41;98571.53;5285494;27;20063;-92
2023/12/23 11:25:03;;;;;;;0.00;0.00;;;;;;;4.07;59.40;98571.72;5302511;27;20733;-90
2023/12/23 11:27:35;;;;;;;0.00;0.00;;;;;;;3.96;59.39;98572.81;5284000;27;20064;-91
2023/12/23 11:30:05;;;;;;;0.00;0.00;;;;;;;3.90;59.39;98569.56;5285074;27;20067;-91
2023/12/23 11:32:41;;;;;;;0.00;0.00;;;;;;;3.84;59.39;98560.25;5284335;27;20057;-92
2023/12/23 11:35:14;;;;;;;0.00;0.00;;;;;;;3.92;59.39;98557.50;5266972;27;20090;-90
2023/12/23 11:42:00;;;;;;;0.00;0.00;;;;;;;3.76;59.39;98549.28;5280445;27;20128;-93
2023/12/23 11:44:56;;;;;;;;;;;;;;;;;;;;;
2023/12/23 13:48:16;;;;;;;0.00;0.00;;;;;;;4.85;59.44;98475.97;5276526;26;120432;-96
2023/12/23 13:54:57;;;;;;;0.00;0.00;;;;;;;4.82;59.45;98475.22;5175807;27;20059;-94
2023/12/23 13:57:52;;;;;;;0.45;0.45;;;;;;;4.89;59.45;98467.25;5195210;27;20046;-93
2023/12/23 14:04:48;;;;;;;0.00;0.00;;;;;;;4.77;59.44;98457.31;5239803;27;20068;-93
2023/12/23 14:07:12;;;;;;;0.00;0.00;;;;;;;4.88;59.45;98459.56;5362486;26;20048;-92
2023/12/23 14:09:51;;;;;;;0.00;0.00;;;;;;;4.93;59.46;98458.53;5347085;26;20401;-92
2023/12/23 14:12:19;;;;;;;0.00;0.00;;;;;;;4.77;59.44;98456.47;5348802;26;20126;-93
2023/12/23 14:14:47;;;;;;;0.00;0.00;;;;;;;4.79;59.45;98463.25;5366185;26;20056;-93
2023/12/23 14:17:16;;;;;;;0.00;0.00;;;;;;;4.76;59.44;98450.47;5347575;26;20052;-93
2023/12/23 14:20:11;;;;;;;;;;;;;;;;;;;;;
2023/12/23 14:22:48;;;;;;;0.32;0.32;;;;;;;4.72;59.43;98450.56;5365679;26;35064;-94
2023/12/23 14:25:43;;;;;;;0.00;0.00;;;;;;;4.83;59.44;98454.53;5328504;26;20059;-93
2023/12/23 14:28:59;;;;;;;;;;;;;;;;;;;;;
2023/12/23 14:34:22;;;;;;;0.00;0.00;;;;;;;4.78;59.44;98459.00;5354358;26;20397;-93
2023/12/23 14:36:48;;;;;;;0.10;0.10;;;;;;;4.64;59.44;98461.13;5347811;26;20063;-92
2023/12/23 14:39:18;;;;;;;0.00;0.00;;;;;;;4.72;59.44;98464.31;5346419;26;20060;-93
2023/12/23 14:41:45;;;;;;;0.20;0.20;;;;;;;4.74;59.44;98457.41;5328022;26;20425;-90
2023/12/23 14:44:11;;;;;;;0.00;0.00;;;;;;;4.76;59.44;98465.09;5327688;26;20123;-94
2023/12/23 14:46:37;;;;;;;0.40;0.25;;;;;;;4.58;59.43;98477.63;5347340;26;20078;-92
2023/12/23 14:49:13;;;;;;;;;;;;;;;;;;;;;
2023/12/23 14:51:44;;;;;;;0.00;0.00;;;;;;;4.51;59.42;98468.37;5365063;26;35391;-93
2023/12/23 14:54:45;;;;;;;;;;;;;;;;;;;;;
2023/12/23 14:58:04;;;;;;;;;;;;;;;;;;;;;
2023/12/23 15:00:19;;;;;;;0.37;0.28;;;;;;;4.41;59.42;98473.81;5361197;26;20066;-95
2023/12/23 15:03:07;;;;;;;0.00;0.00;;;;;;;4.46;59.42;98472.78;5349234;26;20175;-95
2023/12/23 15:36:37;;;;;;;;;;;;;;;;;;;;;
2023/12/23 15:42:34;;;;;;;5.95;1.02;;;;;;;4.70;59.44;98470.41;5125159;28;20059;-96
2023/12/23 15:45:12;;;;;;;0.00;0.00;;;;;;;4.63;59.43;98468.00;5114765;27;20055;-95
2023/12/23 16:37:30;;;;;;;;;;;;;;;;;;;;;
2023/12/23 16:40:21;;;;;;;1.05;1.02;;;;;;;4.54;59.42;98423.63;5299908;27;36126;-94
2023/12/23 17:14:58;;;;;;;;;;;;;;;;;;;;;
2023/12/23 17:18:05;;;;;;;;;;;;;;;;;;;;;
2023/12/23 17:20:52;;;;;;;;;;;;;;;;;;;;;
2023/12/23 17:24:36;;;;;;;;;;;;;;;;;;;;;
2023/12/23 17:37:59;;;;;;;1.17;1.10;;;;;;;4.73;59.44;98431.66;5044892;28;20090;-93
2023/12/23 17:40:34;;;;;;;1.08;0.62;;;;;;;4.41;59.42;98445.47;5113435;27;20793;-92
2023/12/23 17:43:03;;;;;;;2.50;1.90;;;;;;;4.80;59.45;98451.22;5228582;27;20076;-91
2023/12/23 17:45:30;;;;;;;0.10;0.10;;;;;;;4.76;59.44;98455.63;5240281;27;20133;-93
2023/12/23 17:47:57;;;;;;;0.70;0.70;;;;;;;4.88;59.45;98460.41;5239904;27;20030;-93
2023/12/23 17:50:49;;;;;;;0.30;0.30;;;;;;;5.03;59.46;98474.59;5220296;27;20058;-93
2023/12/23 17:53:25;;;;;;;1.17;1.17;;;;;;;4.88;59.45;98485.34;5241037;27;20107;-92
2023/12/23 17:56:11;;;;;;;0.75;0.75;;;;;;;4.81;59.45;98489.00;5238686;27;20646;-94
2023/12/23 17:58:39;;;;;;;0.20;0.20;;;;;;;4.65;59.44;98498.87;5256831;27;20036;-94
2023/12/23 18:01:20;;;;;;;;;;;;;;;;;;;;;
2023/12/23 18:04:05;;;;;;;0.32;0.32;;;;;;;4.57;59.43;98514.56;5256463;27;35557;-95
2023/12/23 18:06:57;;;;;;;0.62;0.62;;;;;;;4.47;59.42;98505.38;5241315;27;20077;-95
2023/12/23 18:09:23;;;;;;;1.08;1.00;;;;;;;4.36;59.42;98510.00;5233923;27;20776;-94
2023/12/23 18:12:05;;;;;;;0.00;0.00;;;;;;;4.12;59.40;98503.78;5198954;27;20089;-94
2023/12/23 18:14:33;;;;;;;0.32;0.20;;;;;;;4.21;59.41;98503.50;5217601;27;20069;-93
2023/12/23 18:20:14;;;;;;;0.75;0.75;;;;;;;4.22;59.41;98512.09;5218715;27;20124;-93
2023/12/23 18:22:52;;;;;;;;;;;;;;;;;;;;;
2023/12/23 18:28:59;;;;;;;0.10;0.10;;;;;;;4.35;59.41;98507.47;5233947;27;20128;-95
2023/12/23 18:35:22;;;;;;;;;;;;;;;;;;;;;
2023/12/23 18:44:35;;;;;;;;;;;;;;;;;;;;;
2023/12/23 18:47:47;;;;;;;0.00;0.00;;;;;;;4.38;59.42;98528.84;5207633;27;35711;-96
2023/12/23 18:50:13;;;;;;;2.70;1.95;;;;;;;4.41;59.42;98526.19;5234597;27;20069;-93
2023/12/23 18:52:48;;;;;;;0.08;0.08;;;;;;;4.31;59.42;98535.88;5211885;27;20590;-94
2023/12/23 18:55:14;;;;;;;0.20;0.20;;;;;;;4.54;59.43;98526.72;5221268;27;20029;-95
2023/12/23 18:57:40;;;;;;;0.32;0.32;;;;;;;4.37;59.43;98540.03;5264230;26;20116;-93
2023/12/23 19:00:17;;;;;;;0.00;0.00;;;;;;;4.45;59.43;98543.25;5285733;27;20049;-94
2023/12/23 19:02:46;;;;;;;3.92;2.05;;;;;;;4.46;59.42;98547.50;5293436;27;20101;-93
2023/12/23 19:05:15;;;;;;;0.13;0.10;;;;;;;4.55;59.43;98543.84;5286022;27;20076;-92
2023/12/23 19:07:56;;;;;;;;;;;;;;;;;;;;;
2023/12/23 19:16:59;;;;;;;0.77;0.45;;;;;;;4.57;59.42;98547.22;5322473;27;20031;-92
2023/12/23 19:19:32;;;;;;;0.03;0.03;;;;;;;4.47;59.42;98551.78;5303272;27;20395;-93
2023/12/23 19:22:07;;;;;;;;;;;;;;;;;;;;;
2023/12/23 19:25:07;;;;;;;0.65;0.65;;;;;;;4.38;59.42;98557.19;5308707;27;36591;-93
2023/12/23 19:27:47;;;;;;;5.90;1.67;;;;;;;4.29;59.42;98570.31;5305173;27;20084;-93
2023/12/23 19:30:16;;;;;;;1.75;1.65;;;;;;;4.44;59.43;98564.75;5287778;27;20056;-93
2023/12/23 19:32:41;;;;;;;0.00;0.00;;;;;;;4.45;59.42;98570.75;5291684;27;20061;-94
2023/12/23 19:35:57;;;;;;;0.15;0.15;;;;;;;4.48;59.42;98578.38;5303362;27;20079;-94
2023/12/23 19:38:26;;;;;;;4.72;1.60;;;;;;;4.46;59.42;98578.44;5320403;26;20071;-94
2023/12/23 19:40:52;;;;;;;0.05;0.05;;;;;;;4.43;59.43;98593.97;5285805;27;20071;-94
2023/12/23 19:43:23;;;;;;;0.10;0.10;;;;;;;4.25;59.41;98594.44;5284751;27;20056;-94
2023/12/23 19:45:49;;;;;;;0.00;0.00;;;;;;;4.35;59.42;98595.91;5319412;26;20074;-94
2023/12/23 19:48:15;;;;;;;0.20;0.20;;;;;;;4.39;59.42;98594.94;5307167;27;20065;-93
2023/12/23 19:50:40;;;;;;;0.90;0.77;;;;;;;4.41;59.42;98605.19;5284750;27;20062;-94
2023/12/23 19:53:05;;;;;;;0.00;0.00;;;;;;;4.34;59.41;98613.97;5284941;27;20064;-95
2023/12/23 19:55:31;;;;;;;2.10;1.90;;;;;;;4.27;59.42;98618.44;5321518;27;20111;-93
2023/12/23 19:57:56;;;;;;;1.17;0.90;;;;;;;4.39;59.42;98610.41;5285359;27;20070;-94
2023/12/23 20:00:22;;;;;;;5.47;0.45;;;;;;;4.08;59.41;98619.78;5286752;27;20099;-93
2023/12/23 20:02:47;;;;;;;0.43;0.43;;;;;;;4.05;59.41;98610.38;5292940;27;20072;-95
2023/12/23 20:05:13;;;;;;;0.00;0.00;;;;;;;4.14;59.41;98614.47;5286065;27;20408;-95
2023/12/23 20:07:38;;;;;;;0.68;0.68;;;;;;;3.98;59.40;98622.53;5322564;27;20061;-94
2023/12/23 20:10:07;;;;;;;0.47;0.47;;;;;;;4.00;59.40;98623.34;5322170;27;20058;-96
2023/12/23 20:12:32;;;;;;;0.52;0.52;;;;;;;3.81;59.38;98621.25;5304536;27;20053;-96
2023/12/23 20:15:00;;;;;;;0.08;0.08;;;;;;;3.63;59.38;98628.50;5291055;27;20045;-93
2023/12/23 20:17:28;;;;;;;2.33;0.90;;;;;;;3.58;59.37;98626.91;5295942;27;20025;-96
2023/12/23 20:22:35;;;;;;;2.80;1.65;;;;;;;3.53;59.38;98637.28;5313006;26;20092;-96
2023/12/23 20:25:10;;;;;;;1.17;0.57;;;;;;;3.36;59.36;98640.25;5302823;26;20037;-96
2023/12/23 20:27:55;;;;;;;0.00;0.00;;;;;;;3.50;59.37;98641.66;5333102;26;20726;-94
2023/12/23 20:30:22;;;;;;;0.43;0.43;;;;;;;3.53;59.38;98650.16;5298173;26;20064;-95
2023/12/23 20:32:56;;;;;;;0.57;0.13;;;;;;;3.52;59.37;98655.34;5335771;26;20405;-96
2023/12/23 20:35:25;;;;;;;0.00;0.00;;;;;;;3.39;59.37;98658.19;5333254;26;20732;-96
2023/12/23 20:37:54;;;;;;;0.00;0.00;;;;;;;3.35;59.36;98663.41;5292912;26;20067;-96
2023/12/23 20:40:20;;;;;;;0.00;0.00;;;;;;;3.42;59.37;98659.00;5291187;26;20064;-95
2023/12/23 20:42:49;;;;;;;1.17;1.10;;;;;;;3.43;59.36;98660.69;5291824;27;20072;-95
2023/12/23 20:45:49;;;;;;;1.37;0.90;;;;;;;3.40;59.37;98666.75;5293590;27;20069;-96
2023/12/23 20:48:25;;;;;;;0.00;0.00;;;;;;;3.34;59.36;98672.88;5333944;26;20052;-96
2023/12/23 20:51:00;;;;;;;1.45;0.80;;;;;;;3.34;59.37;98683.16;5326728;27;20060;-95
2023/12/23 20:53:42;;;;;;;1.40;0.98;;;;;;;3.24;59.35;98693.62;5289515;27;20048;-95
2023/12/23 20:56:08;;;;;;;0.40;0.28;;;;;;;3.38;59.36;98697.63;5287833;27;20703;-95
2023/12/23 20:58:45;;;;;;;0.17;0.17;;;;;;;3.43;59.36;98691.53;5286894;27;20075;-96